ADDS TAF Board (Experimental) INFO

IDs: Format: Expanded Condensed

Updated at: 0840 UTC 20 Dec 2014

KCLE - Cleveland/Hopkins In, OH, US

Issued at 0520 UTC 20 Dec 2014
Time0751Z20/09Z20/10Z20/11Z20/12Z20/13Z20/14Z20/15Z20/16Z20/17Z20/18Z20/19Z20/20Z20/21Z
TypeOBSPRVLPRVLPRVLPRVLPRVLPRVLPRVLPRVLPRVLPRVLPRVLPRVLPRVL
VIS10>6>6>6>6>6>6>6>6>6>6>6>6>6
CIG2525252525252525252525252525
CoverOVCOVCOVCOVCOVCOVCOVCOVCOVCOVCOVCOVCOVCOVC
FltCatMVFRMVFRMVFRMVFRMVFRMVFRMVFRMVFRMVFRMVFRMVFRMVFRMVFRMVFR
WX----------------------------
WDir200VRBVRBVRBVRBVRBVRBVRBVRBVRBVRBVRBVRBVRB
WSpd43333333333333
WGst----------------------------
R06/24
XWnd-2VRBVRBVRBVRBVRBVRBVRBVRBVRBVRBVRBVRBVRB
HWnd-3VRBVRBVRBVRBVRBVRBVRBVRBVRBVRBVRBVRBVRB
R10/28
XWnd-4VRBVRBVRBVRBVRBVRBVRBVRBVRBVRBVRBVRBVRB
HWnd-1VRBVRBVRBVRBVRBVRBVRBVRBVRBVRBVRBVRBVRB
Raw TAF
KCLE 200520Z 2006/2112 VRB03KT P6SM SCT015 OVC025

Raw METAR
KCLE 200751Z 20004KT 10SM OVC025 M02/M07 A3030 RMK AO2 SLP270 T10171067 $

TAF Board Legend

Hazard VFR MVFR IFR LIFR
Visibility (sm) >5 3≤X≤5 1≤X<3 <1
Ceiling (100 ft) >30 10≤X≤30 5≤X<10 <5
Wind Speed (kt) <10 10≤X<20 20≤X<30 ≥30
Wind Gust (kt) <15 15≤X<25 25≤X<35 ≥35
Weather No Wx Reported VCTS,-TS,-FZRA TS,FZRA +TS,+FZRA


Page loaded:  08:40 UTC  |   12:40 AM Pacific  |   01:40 AM Mountain  |   02:40 AM Central  |   03:40 AM Eastern

 

ADVISORIES

FORECASTS

FORECASTS

OBSERVATIONS

USER TOOLS

ABOUT US